Time,TemperatureF,DewpointF,PressureIn,WindDirection,WindDirectionDegrees,WindSpeedMPH,WindSpeedGustMPH,Humidity,HourlyPrecipIn,Conditions,Clouds,dailyrainin,SoftwareType,DateUTC
2013-03-06 00:00:00,37.9,24.9,29.70,ESE,114,5.0,8.0,59,0.00,,,0.00,WeatherCatV1.10B1784,2013-03-06 05:00:00,
2013-03-06 00:05:00,37.9,26.1,29.71,ESE,115,13.0,27.0,62,0.00,,,0.00,WeatherCatV1.10B1784,2013-03-06 05:05:00,
2013-03-06 00:10:00,37.3,27.4,29.71,ESE,110,9.0,12.0,67,0.00,,,0.00,WeatherCatV1.10B1784,2013-03-06 05:10:00,
2013-03-06 00:15:00,36.8,27.9,29.71,ESE,118,12.0,16.0,70,0.00,,,0.00,WeatherCatV1.10B1784,2013-03-06 05:15:00,
2013-03-06 00:20:00,36.2,28.7,29.71,ESE,120,9.0,15.0,74,0.00,,,0.00,WeatherCatV1.10B1784,2013-03-06 05:20:00,
2013-03-06 00:25:00,35.3,29.5,29.71,ESE,112,11.0,12.0,79,0.00,,,0.00,WeatherCatV1.10B1784,2013-03-06 05:25:00,
2013-03-06 00:30:00,34.5,29.9,29.71,East,101,4.0,14.0,83,0.00,,,0.00,WeatherCatV1.10B1784,2013-03-06 05:30:00,
2013-03-06 00:35:00,33.9,30.4,29.71,ENE,58,5.0,14.0,87,0.00,,,0.00,WeatherCatV1.10B1784,2013-03-06 05:35:00,
2013-03-06 00:40:00,33.4,30.5,29.71,South,188,5.0,10.0,89,0.00,,,0.00,WeatherCatV1.10B1784,2013-03-06 05:40:00,
2013-03-06 00:45:00,33.1,30.8,29.71,SSE,151,6.0,11.0,91,0.00,,,0.00,WeatherCatV1.10B1784,2013-03-06 05:45:00,
2013-03-06 00:50:00,32.9,30.8,29.71,SE,125,7.0,9.0,92,0.00,,,0.00,WeatherCatV1.10B1784,2013-03-06 05:50:00,
2013-03-06 00:55:00,32.8,30.7,29.71,East,94,5.0,11.0,92,0.00,,,0.00,WeatherCatV1.10B1784,2013-03-06 05:55:00,
2013-03-06 01:00:00,32.6,30.8,29.71,ESE,122,3.0,8.0,93,0.00,,,0.00,WeatherCatV1.10B1784,2013-03-06 06:00:00,
2013-03-06 01:05:00,32.5,30.7,29.71,East,101,7.0,8.0,93,0.00,,,0.00,WeatherCatV1.10B1784,2013-03-06 06:05:00,
2013-03-06 01:10:00,32.4,30.9,29.71,ENE,74,6.0,6.0,94,0.00,,,0.00,WeatherCatV1.10B1784,2013-03-06 06:10:00,
2013-03-06 01:15:00,32.4,30.9,29.71,ESE,105,5.0,8.0,94,0.00,,,0.00,WeatherCatV1.10B1784,2013-03-06 06:15:00,
2013-03-06 01:20:00,32.4,30.9,29.71,NE,55,4.0,8.0,94,0.00,,,0.00,WeatherCatV1.10B1784,2013-03-06 06:20:00,
2013-03-06 01:25:00,32.3,30.8,29.71,East,101,3.0,6.0,94,0.00,,,0.00,WeatherCatV1.10B1784,2013-03-06 06:25:00,
2013-03-06 01:30:00,32.3,30.8,29.71,SSE,154,5.0,6.0,94,0.00,,,0.00,WeatherCatV1.10B1784,2013-03-06 06:30:00,
2013-03-06 01:35:00,32.3,31.0,29.71,ESE,113,4.0,4.0,95,0.00,,,0.00,WeatherCatV1.10B1784,2013-03-06 06:35:00,
2013-03-06 01:40:00,32.3,31.0,29.71,East,79,6.0,12.0,95,0.00,,,0.00,WeatherCatV1.10B1784,2013-03-06 06:40:00,
2013-03-06 01:45:00,32.3,31.0,29.72,East,98,5.0,9.0,95,0.00,,,0.00,WeatherCatV1.10B1784,2013-03-06 06:45:00,
2013-03-06 01:50:00,32.3,31.0,29.72,ENE,68,3.0,6.0,95,0.00,,,0.00,WeatherCatV1.10B1784,2013-03-06 06:50:00,
2013-03-06 01:55:00,32.3,31.0,29.72,ENE,62,3.0,4.0,95,0.00,,,0.00,WeatherCatV1.10B1784,2013-03-06 06:55:00,
2013-03-06 02:00:00,32.3,31.0,29.72,East,84,2.0,9.0,95,0.00,,,0.00,WeatherCatV1.10B1784,2013-03-06 07:00:00,
2013-03-06 02:05:00,32.2,30.9,29.72,ESE,106,5.0,9.0,95,0.00,,,0.00,WeatherCatV1.10B1784,2013-03-06 07:05:00,
2013-03-06 02:10:00,32.2,30.9,29.72,ENE,78,2.0,6.0,95,0.00,,,0.00,WeatherCatV1.10B1784,2013-03-06 07:10:00,
2013-03-06 02:15:00,32.1,30.8,29.72,East,90,7.0,15.0,95,0.00,,,0.00,WeatherCatV1.10B1784,2013-03-06 07:15:00,
2013-03-06 02:20:00,32.1,30.8,29.73,ENE,68,4.0,10.0,95,0.00,,,0.00,WeatherCatV1.10B1784,2013-03-06 07:20:00,
2013-03-06 02:25:00,32.0,30.7,29.72,East,98,9.0,13.0,95,0.00,,,0.00,WeatherCatV1.10B1784,2013-03-06 07:25:00,
2013-03-06 02:30:00,32.0,31.0,29.72,ENE,61,5.0,15.0,96,0.00,,,0.00,WeatherCatV1.10B1784,2013-03-06 07:30:00,
2013-03-06 02:35:00,32.0,31.0,29.73,ESE,115,4.0,10.0,96,0.00,,,0.00,WeatherCatV1.10B1784,2013-03-06 07:35:00,
2013-03-06 02:40:00,31.9,30.9,29.73,ESE,113,6.0,7.0,96,0.00,,,0.00,WeatherCatV1.10B1784,2013-03-06 07:40:00,
2013-03-06 02:45:00,31.9,30.9,29.73,ENE,75,2.0,5.0,96,0.00,,,0.00,WeatherCatV1.10B1784,2013-03-06 07:45:00,
2013-03-06 02:50:00,31.9,30.9,29.73,NE,50,4.0,9.0,96,0.00,,,0.00,WeatherCatV1.10B1784,2013-03-06 07:50:00,
2013-03-06 02:55:00,32.0,31.0,29.73,ESE,110,2.0,7.0,96,0.00,,,0.00,WeatherCatV1.10B1784,2013-03-06 07:55:00,
2013-03-06 03:00:00,31.9,30.9,29.73,ESE,107,4.0,7.0,96,0.00,,,0.00,WeatherCatV1.10B1784,2013-03-06 08:00:00,
2013-03-06 03:05:00,31.9,30.9,29.73,ESE,107,6.0,7.0,96,0.00,,,0.00,WeatherCatV1.10B1784,2013-03-06 08:05:00,
2013-03-06 03:10:00,31.9,30.9,29.73,ESE,117,1.0,3.0,96,0.00,,,0.00,WeatherCatV1.10B1784,2013-03-06 08:10:00,
2013-03-06 03:15:00,31.9,30.9,29.73,ENE,64,4.0,7.0,96,0.00,,,0.00,WeatherCatV1.10B1784,2013-03-06 08:15:00,
2013-03-06 03:20:00,31.9,30.9,29.73,ENE,75,2.0,6.0,96,0.00,,,0.00,WeatherCatV1.10B1784,2013-03-06 08:20:00,
2013-03-06 03:25:00,31.9,30.9,29.73,ENE,61,6.0,9.0,96,0.00,,,0.00,WeatherCatV1.10B1784,2013-03-06 08:25:00,
2013-03-06 03:30:00,31.9,30.9,29.73,ENE,71,4.0,7.0,96,0.00,,,0.00,WeatherCatV1.10B1784,2013-03-06 08:30:00,
2013-03-06 03:35:00,31.9,30.9,29.74,SE,136,5.0,7.0,96,0.00,,,0.00,WeatherCatV1.10B1784,2013-03-06 08:35:00,
2013-03-06 03:40:00,31.8,30.8,29.74,ESE,107,7.0,8.0,96,0.00,,,0.00,WeatherCatV1.10B1784,2013-03-06 08:40:00,
2013-03-06 03:45:00,31.9,30.9,29.74,East,92,1.0,3.0,96,0.00,,,0.00,WeatherCatV1.10B1784,2013-03-06 08:45:00,
2013-03-06 03:50:00,31.8,30.8,29.75,ENE,77,3.0,9.0,96,0.00,,,0.00,WeatherCatV1.10B1784,2013-03-06 08:50:00,
2013-03-06 03:55:00,31.9,30.9,29.75,ESE,123,0.0,3.0,96,0.00,,,0.00,WeatherCatV1.10B1784,2013-03-06 08:55:00,
2013-03-06 04:00:00,31.9,30.9,29.75,ESE,109,4.0,6.0,96,0.00,,,0.00,WeatherCatV1.10B1784,2013-03-06 09:00:00,
2013-03-06 04:05:00,31.9,30.9,29.75,East,88,4.0,5.0,96,0.00,,,0.00,WeatherCatV1.10B1784,2013-03-06 09:05:00,
2013-03-06 04:10:00,31.9,31.1,29.75,ESE,116,2.0,6.0,97,0.00,,,0.00,WeatherCatV1.10B1784,2013-03-06 09:10:00,
2013-03-06 04:15:00,31.9,31.1,29.75,ENE,62,2.0,3.0,97,0.00,,,0.00,WeatherCatV1.10B1784,2013-03-06 09:15:00,
2013-03-06 04:20:00,31.9,31.1,29.76,East,91,2.0,3.0,97,0.00,,,0.00,WeatherCatV1.10B1784,2013-03-06 09:20:00,
2013-03-06 04:25:00,31.9,31.1,29.76,ENE,68,1.0,3.0,97,0.00,,,0.00,WeatherCatV1.10B1784,2013-03-06 09:25:00,
2013-03-06 04:30:00,31.9,31.1,29.76,ENE,72,3.0,3.0,97,0.00,,,0.00,WeatherCatV1.10B1784,2013-03-06 09:30:00,
2013-03-06 04:35:00,31.9,31.1,29.77,NE,53,1.0,3.0,97,0.00,,,0.00,WeatherCatV1.10B1784,2013-03-06 09:35:00,
2013-03-06 04:40:00,31.9,31.1,29.77,East,86,3.0,3.0,97,0.00,,,0.00,WeatherCatV1.10B1784,2013-03-06 09:40:00,
2013-03-06 04:45:00,31.9,31.1,29.77,East,82,1.0,2.0,97,0.00,,,0.00,WeatherCatV1.10B1784,2013-03-06 09:45:00,
2013-03-06 04:50:00,31.9,31.1,29.77,ENE,65,2.0,2.0,97,0.00,,,0.00,WeatherCatV1.10B1784,2013-03-06 09:50:00,
2013-03-06 04:55:00,31.9,31.1,29.78,ENE,73,0.0,1.0,97,0.00,,,0.00,WeatherCatV1.10B1784,2013-03-06 09:55:00,
2013-03-06 05:00:00,31.9,31.1,29.78,East,82,1.0,1.0,97,0.00,,,0.00,WeatherCatV1.10B1784,2013-03-06 10:00:00,
2013-03-06 05:05:00,31.9,31.1,29.78,East,81,1.0,2.0,97,0.00,,,0.00,WeatherCatV1.10B1784,2013-03-06 10:05:00,
2013-03-06 05:10:00,31.9,31.1,29.79,East,95,1.0,1.0,97,0.00,,,0.00,WeatherCatV1.10B1784,2013-03-06 10:10:00,
2013-03-06 05:15:00,31.9,31.1,29.79,ESE,115,1.0,3.0,97,0.00,,,0.00,WeatherCatV1.10B1784,2013-03-06 10:15:00,
2013-03-06 05:20:00,32.0,31.2,29.79,ESE,119,1.0,3.0,97,0.00,,,0.00,WeatherCatV1.10B1784,2013-03-06 10:20:00,
2013-03-06 05:25:00,31.9,31.1,29.79,East,84,0.0,0.0,97,0.00,,,0.00,WeatherCatV1.10B1784,2013-03-06 10:25:00,
2013-03-06 05:30:00,32.0,31.2,29.79,ESE,115,0.0,0.0,97,0.00,,,0.00,WeatherCatV1.10B1784,2013-03-06 10:30:00,
2013-03-06 05:35:00,32.0,31.2,29.80,East,97,0.0,0.0,97,0.00,,,0.00,WeatherCatV1.10B1784,2013-03-06 10:35:00,
2013-03-06 05:40:00,32.0,31.2,29.80,East,84,0.0,0.0,97,0.00,,,0.00,WeatherCatV1.10B1784,2013-03-06 10:40:00,
2013-03-06 05:45:00,32.0,31.2,29.80,East,92,0.0,0.0,97,0.00,,,0.00,WeatherCatV1.10B1784,2013-03-06 10:45:00,
2013-03-06 05:50:00,32.0,31.2,29.80,East,84,0.0,0.0,97,0.00,,,0.00,WeatherCatV1.10B1784,2013-03-06 10:50:00,
2013-03-06 05:55:00,32.0,31.2,29.80,East,91,0.0,0.0,97,0.00,,,0.00,WeatherCatV1.10B1784,2013-03-06 10:55:00,
2013-03-06 06:00:00,32.0,31.2,29.81,ENE,70,0.0,0.0,97,0.00,,,0.00,WeatherCatV1.10B1784,2013-03-06 11:00:00,
2013-03-06 06:05:00,32.0,31.2,29.81,ESE,103,0.0,0.0,97,0.00,,,0.00,WeatherCatV1.10B1784,2013-03-06 11:05:00,
2013-03-06 06:10:00,32.0,31.2,29.81,ENE,73,0.0,0.0,97,0.00,,,0.00,WeatherCatV1.10B1784,2013-03-06 11:10:00,
2013-03-06 06:15:00,32.0,31.2,29.81,ENE,72,0.0,0.0,97,0.00,,,0.00,WeatherCatV1.10B1784,2013-03-06 11:15:00,
2013-03-06 06:20:00,32.0,31.2,29.82,ESE,103,0.0,0.0,97,0.00,,,0.00,WeatherCatV1.10B1784,2013-03-06 11:20:00,
2013-03-06 06:25:00,32.0,31.2,29.82,ENE,77,0.0,0.0,97,0.00,,,0.00,WeatherCatV1.10B1784,2013-03-06 11:25:00,
2013-03-06 06:30:00,32.0,31.2,29.82,ENE,68,0.0,0.0,97,0.00,,,0.00,WeatherCatV1.10B1784,2013-03-06 11:30:00,
2013-03-06 06:35:00,32.0,31.2,29.82,ENE,73,0.0,0.0,97,0.00,,,0.00,WeatherCatV1.10B1784,2013-03-06 11:35:00,
2013-03-06 06:40:00,32.0,31.2,29.83,ENE,70,0.0,0.0,97,0.00,,,0.00,WeatherCatV1.10B1784,2013-03-06 11:40:00,
2013-03-06 06:45:00,32.0,31.2,29.83,ENE,60,0.0,0.0,97,0.00,,,0.00,WeatherCatV1.10B1784,2013-03-06 11:45:00,
2013-03-06 06:50:00,32.0,31.2,29.83,ENE,63,0.0,0.0,97,0.00,,,0.00,WeatherCatV1.10B1784,2013-03-06 11:50:00,
2013-03-06 06:55:00,32.0,31.2,29.83,ENE,70,0.0,0.0,97,0.00,,,0.00,WeatherCatV1.10B1784,2013-03-06 11:55:00,
2013-03-06 07:00:00,32.0,31.2,29.83,ENE,64,0.0,0.0,97,0.00,,,0.00,WeatherCatV1.10B1784,2013-03-06 12:00:00,
2013-03-06 07:05:00,31.9,31.1,29.84,East,95,0.0,0.0,97,0.00,,,0.00,WeatherCatV1.10B1784,2013-03-06 12:05:00,
2013-03-06 07:10:00,31.9,31.1,29.84,East,79,0.0,0.0,97,0.00,,,0.00,WeatherCatV1.10B1784,2013-03-06 12:10:00,
2013-03-06 07:15:00,31.9,31.1,29.84,ENE,73,0.0,0.0,97,0.00,,,0.00,WeatherCatV1.10B1784,2013-03-06 12:15:00,
2013-03-06 07:20:00,31.9,31.1,29.85,ENE,76,0.0,0.0,97,0.00,,,0.00,WeatherCatV1.10B1784,2013-03-06 12:20:00,
2013-03-06 07:25:00,31.9,31.1,29.85,ENE,61,0.0,0.0,97,0.00,,,0.00,WeatherCatV1.10B1784,2013-03-06 12:25:00,
2013-03-06 07:30:00,31.9,31.1,29.85,NE,53,0.0,0.0,97,0.00,,,0.00,WeatherCatV1.10B1784,2013-03-06 12:30:00,
2013-03-06 07:35:00,32.0,31.2,29.86,ENE,61,0.0,0.0,97,0.00,,,0.00,WeatherCatV1.10B1784,2013-03-06 12:35:00,
2013-03-06 07:40:00,32.0,31.2,29.86,ENE,72,0.0,0.0,97,0.00,,,0.00,WeatherCatV1.10B1784,2013-03-06 12:40:00,
2013-03-06 07:45:00,32.1,31.3,29.86,East,90,0.0,0.0,97,0.00,,,0.00,WeatherCatV1.10B1784,2013-03-06 12:45:00,
2013-03-06 07:50:00,32.1,31.3,29.87,ENE,68,0.0,0.0,97,0.00,,,0.00,WeatherCatV1.10B1784,2013-03-06 12:50:00,
2013-03-06 07:55:00,32.1,31.3,29.87,ENE,58,0.0,0.0,97,0.00,,,0.00,WeatherCatV1.10B1784,2013-03-06 12:55:00,
2013-03-06 08:00:00,32.2,31.4,29.87,ENE,65,0.0,0.0,97,0.00,,,0.00,WeatherCatV1.10B1784,2013-03-06 13:00:00,
2013-03-06 08:05:00,32.2,31.4,29.88,NE,49,0.0,0.0,97,0.00,,,0.00,WeatherCatV1.10B1784,2013-03-06 13:05:00,
2013-03-06 08:10:00,32.2,31.4,29.88,ENE,61,0.0,0.0,97,0.00,,,0.00,WeatherCatV1.10B1784,2013-03-06 13:10:00,
2013-03-06 08:15:00,32.2,31.4,29.88,ENE,76,0.0,0.0,97,0.00,,,0.00,WeatherCatV1.10B1784,2013-03-06 13:15:00,
2013-03-06 08:20:00,32.3,31.5,29.88,ENE,58,0.0,0.0,97,0.00,,,0.00,WeatherCatV1.10B1784,2013-03-06 13:20:00,
2013-03-06 08:25:00,32.3,31.5,29.88,ENE,70,0.0,0.0,97,0.00,,,0.00,WeatherCatV1.10B1784,2013-03-06 13:25:00,
2013-03-06 08:30:00,32.2,31.4,29.89,ENE,61,0.0,0.0,97,0.00,,,0.00,WeatherCatV1.10B1784,2013-03-06 13:30:00,
2013-03-06 08:35:00,32.2,31.4,29.89,ENE,62,0.0,0.0,97,0.00,,,0.00,WeatherCatV1.10B1784,2013-03-06 13:35:00,
2013-03-06 08:40:00,32.2,31.4,29.89,NE,46,0.0,0.0,97,0.00,,,0.00,WeatherCatV1.10B1784,2013-03-06 13:40:00,
2013-03-06 08:45:00,32.2,31.4,29.90,ENE,63,0.0,0.0,97,0.00,,,0.00,WeatherCatV1.10B1784,2013-03-06 13:45:00,
2013-03-06 08:50:00,32.1,31.3,29.90,ENE,61,0.0,0.0,97,0.00,,,0.00,WeatherCatV1.10B1784,2013-03-06 13:50:00,
2013-03-06 08:55:00,32.1,31.3,29.90,East,84,0.0,0.0,97,0.00,,,0.00,WeatherCatV1.10B1784,2013-03-06 13:55:00,
2013-03-06 09:00:00,32.2,31.4,29.90,ENE,75,0.0,0.0,97,0.00,,,0.00,WeatherCatV1.10B1784,2013-03-06 14:00:00,
2013-03-06 09:05:00,32.2,31.4,29.90,ENE,66,0.0,0.0,97,0.00,,,0.00,WeatherCatV1.10B1784,2013-03-06 14:05:00,
2013-03-06 09:10:00,32.3,31.5,29.90,ENE,71,0.0,0.0,97,0.00,,,0.00,WeatherCatV1.10B1784,2013-03-06 14:10:00,
2013-03-06 09:15:00,32.4,31.6,29.91,East,87,0.0,0.0,97,0.00,,,0.00,WeatherCatV1.10B1784,2013-03-06 14:15:00,
2013-03-06 09:20:00,32.4,31.6,29.91,ENE,72,0.0,0.0,97,0.00,,,0.00,WeatherCatV1.10B1784,2013-03-06 14:20:00,
2013-03-06 09:25:00,32.5,31.7,29.91,ENE,71,0.0,0.0,97,0.00,,,0.00,WeatherCatV1.10B1784,2013-03-06 14:25:00,
2013-03-06 09:30:00,32.6,31.8,29.91,ENE,64,0.0,0.0,97,0.00,,,0.00,WeatherCatV1.10B1784,2013-03-06 14:30:00,
2013-03-06 09:35:00,32.6,31.8,29.92,NE,44,0.0,0.0,97,0.00,,,0.00,WeatherCatV1.10B1784,2013-03-06 14:35:00,
2013-03-06 09:40:00,32.7,31.9,29.92,NE,46,0.0,0.0,97,0.00,,,0.00,WeatherCatV1.10B1784,2013-03-06 14:40:00,
2013-03-06 09:45:00,32.8,32.0,29.92,ENE,58,0.0,0.0,97,0.00,,,0.00,WeatherCatV1.10B1784,2013-03-06 14:45:00,
2013-03-06 09:50:00,32.9,32.1,29.92,NE,51,0.0,0.0,97,0.00,,,0.00,WeatherCatV1.10B1784,2013-03-06 14:50:00,
2013-03-06 09:55:00,33.1,32.3,29.92,East,86,0.0,0.0,97,0.00,,,0.00,WeatherCatV1.10B1784,2013-03-06 14:55:00,
2013-03-06 10:00:00,33.3,32.5,29.93,NE,36,0.0,0.0,97,0.00,,,0.00,WeatherCatV1.10B1784,2013-03-06 15:00:00,
2013-03-06 10:05:00,33.2,32.4,29.93,North,1,0.0,0.0,97,0.00,,,0.00,WeatherCatV1.10B1784,2013-03-06 15:05:00,
2013-03-06 10:10:00,33.4,32.6,29.93,NNE,29,0.0,0.0,97,0.00,,,0.00,WeatherCatV1.10B1784,2013-03-06 15:10:00,
2013-03-06 10:15:00,33.6,32.8,29.93,NE,54,0.0,0.0,97,0.00,,,0.00,WeatherCatV1.10B1784,2013-03-06 15:15:00,
2013-03-06 10:20:00,33.7,32.9,29.93,ENE,58,0.0,0.0,97,0.00,,,0.00,WeatherCatV1.10B1784,2013-03-06 15:20:00,
2013-03-06 10:25:00,33.7,32.9,29.93,NNE,33,0.0,0.0,97,0.00,,,0.00,WeatherCatV1.10B1784,2013-03-06 15:25:00,
2013-03-06 10:30:00,33.8,33.0,29.93,NNE,29,0.0,0.0,97,0.00,,,0.00,WeatherCatV1.10B1784,2013-03-06 15:30:00,
2013-03-06 10:35:00,34.0,33.2,29.94,NNE,18,4.0,7.0,97,0.00,,,0.00,WeatherCatV1.10B1784,2013-03-06 15:35:00,
2013-03-06 10:40:00,34.3,33.3,29.94,NE,44,1.0,3.0,96,0.00,,,0.00,WeatherCatV1.10B1784,2013-03-06 15:40:00,
2013-03-06 10:45:00,34.9,33.6,29.94,NE,39,3.0,6.0,95,0.00,,,0.00,WeatherCatV1.10B1784,2013-03-06 15:45:00,
2013-03-06 10:50:00,35.4,33.8,29.94,NE,47,3.0,7.0,94,0.00,,,0.00,WeatherCatV1.10B1784,2013-03-06 15:50:00,
2013-03-06 10:55:00,35.7,33.9,29.94,NNE,33,6.0,7.0,93,0.00,,,0.00,WeatherCatV1.10B1784,2013-03-06 15:55:00,
2013-03-06 11:00:00,36.1,33.5,29.94,NNE,30,2.0,8.0,90,0.00,,,0.00,WeatherCatV1.10B1784,2013-03-06 16:00:00,
2013-03-06 11:05:00,36.5,33.3,29.94,NE,41,5.0,11.0,88,0.00,,,0.00,WeatherCatV1.10B1784,2013-03-06 16:05:00,
2013-03-06 11:10:00,37.1,33.9,29.94,ENE,58,5.0,5.0,88,0.00,,,0.00,WeatherCatV1.10B1784,2013-03-06 16:10:00,
2013-03-06 11:15:00,37.2,32.5,29.95,ENE,58,6.0,9.0,83,0.00,,,0.00,WeatherCatV1.10B1784,2013-03-06 16:15:00,
2013-03-06 11:20:00,37.4,32.1,29.95,ENE,64,4.0,10.0,81,0.00,,,0.00,WeatherCatV1.10B1784,2013-03-06 16:20:00,
2013-03-06 11:25:00,37.7,32.7,29.95,ENE,75,4.0,6.0,82,0.00,,,0.00,WeatherCatV1.10B1784,2013-03-06 16:25:00,
2013-03-06 11:30:00,38.1,32.8,29.95,NE,53,5.0,8.0,81,0.00,,,0.00,WeatherCatV1.10B1784,2013-03-06 16:30:00,
2013-03-06 11:35:00,38.4,32.5,29.95,ENE,66,11.0,13.0,79,0.00,,,0.00,WeatherCatV1.10B1784,2013-03-06 16:35:00,
2013-03-06 11:40:00,38.7,31.5,29.96,NE,36,5.0,14.0,75,0.00,,,0.00,WeatherCatV1.10B1784,2013-03-06 16:40:00,
2013-03-06 11:45:00,39.0,31.1,29.96,NNE,33,7.0,12.0,73,0.00,,,0.00,WeatherCatV1.10B1784,2013-03-06 16:45:00,
2013-03-06 11:50:00,39.3,31.7,29.96,ENE,65,10.0,10.0,74,0.00,,,0.00,WeatherCatV1.10B1784,2013-03-06 16:50:00,
2013-03-06 11:55:00,39.4,31.5,29.96,NE,40,10.0,15.0,73,0.00,,,0.00,WeatherCatV1.10B1784,2013-03-06 16:55:00,
2013-03-06 12:00:00,39.6,31.3,29.96,NE,44,13.0,13.0,72,0.00,,,0.00,WeatherCatV1.10B1784,2013-03-06 17:00:00,
2013-03-06 12:05:00,39.6,30.6,29.96,NE,41,8.0,14.0,70,0.34,,,0.02,WeatherCatV1.10B1784,2013-03-06 17:05:00,
2013-03-06 12:10:00,39.9,30.6,29.96,ENE,65,8.0,9.0,69,0.27,,,0.05,WeatherCatV1.10B1784,2013-03-06 17:10:00,
2013-03-06 12:15:00,40.3,30.6,29.96,NNE,26,11.0,16.0,68,0.22,,,0.07,WeatherCatV1.10B1784,2013-03-06 17:15:00,
2013-03-06 12:20:00,40.3,30.6,29.96,NE,54,7.0,12.0,68,0.22,,,0.09,WeatherCatV1.10B1784,2013-03-06 17:20:00,
2013-03-06 12:25:00,41.1,32.4,29.96,North,0,10.0,10.0,71,0.22,,,0.10,WeatherCatV1.10B1784,2013-03-06 17:25:00,
2013-03-06 12:30:00,40.5,30.4,29.96,NNE,33,8.0,19.0,67,0.13,,,0.11,WeatherCatV1.10B1784,2013-03-06 17:30:00,
2013-03-06 12:35:00,39.6,30.3,29.97,NNE,30,5.0,14.0,69,0.14,,,0.13,WeatherCatV1.10B1784,2013-03-06 17:35:00,
2013-03-06 12:40:00,39.9,31.3,29.97,ENE,58,6.0,13.0,71,0.12,,,0.14,WeatherCatV1.10B1784,2013-03-06 17:40:00,
2013-03-06 12:45:00,39.8,30.1,29.97,North,6,5.0,14.0,68,0.14,,,0.15,WeatherCatV1.10B1784,2013-03-06 17:45:00,
2013-03-06 12:50:00,39.8,30.1,29.97,NE,45,10.0,14.0,68,0.13,,,0.16,WeatherCatV1.10B1784,2013-03-06 17:50:00,
2013-03-06 12:55:00,39.9,30.2,29.97,NE,56,6.0,13.0,68,0.13,,,0.17,WeatherCatV1.10B1784,2013-03-06 17:55:00,
2013-03-06 13:00:00,40.4,29.6,29.97,NE,49,11.0,11.0,65,0.14,,,0.18,WeatherCatV1.10B1784,2013-03-06 18:00:00,
2013-03-06 13:05:00,40.5,29.7,29.97,ENE,67,7.0,11.0,65,0.16,,,0.19,WeatherCatV1.10B1784,2013-03-06 18:05:00,
2013-03-06 13:10:00,40.4,29.2,29.97,East,96,5.0,14.0,64,0.13,,,0.20,WeatherCatV1.10B1784,2013-03-06 18:10:00,
2013-03-06 13:15:00,40.3,29.1,29.98,NNE,33,9.0,13.0,64,0.11,,,0.21,WeatherCatV1.10B1784,2013-03-06 18:15:00,
2013-03-06 13:20:00,40.1,30.0,29.98,ENE,65,9.0,10.0,67,0.07,,,0.21,WeatherCatV1.10B1784,2013-03-06 18:20:00,
2013-03-06 13:25:00,40.1,29.7,29.98,East,81,5.0,9.0,66,0.07,,,0.22,WeatherCatV1.10B1784,2013-03-06 18:25:00,
2013-03-06 13:30:00,40.2,29.4,29.98,NNE,33,11.0,17.0,65,0.08,,,0.23,WeatherCatV1.10B1784,2013-03-06 18:30:00,
2013-03-06 13:35:00,40.2,30.1,29.98,North,6,6.0,10.0,67,0.09,,,0.24,WeatherCatV1.10B1784,2013-03-06 18:35:00,
2013-03-06 13:40:00,40.2,29.4,29.97,NE,40,8.0,12.0,65,0.09,,,0.24,WeatherCatV1.10B1784,2013-03-06 18:40:00,
2013-03-06 13:45:00,40.5,29.7,29.97,NNE,30,8.0,8.0,65,0.08,,,0.25,WeatherCatV1.10B1784,2013-03-06 18:45:00,
2013-03-06 13:50:00,40.7,29.9,29.98,ENE,68,5.0,8.0,65,0.07,,,0.26,WeatherCatV1.10B1784,2013-03-06 18:50:00,
2013-03-06 13:55:00,40.7,29.1,29.98,NE,39,7.0,8.0,63,0.07,,,0.26,WeatherCatV1.10B1784,2013-03-06 18:55:00,
2013-03-06 14:00:00,40.6,29.0,29.98,ENE,58,4.0,11.0,63,0.06,,,0.27,WeatherCatV1.10B1784,2013-03-06 19:00:00,
2013-03-06 14:05:00,40.6,29.4,29.98,NNE,15,6.0,10.0,64,0.06,,,0.27,WeatherCatV1.10B1784,2013-03-06 19:05:00,
2013-03-06 14:10:00,40.5,28.9,29.98,NNW,340,6.0,10.0,63,0.06,,,0.27,WeatherCatV1.10B1784,2013-03-06 19:10:00,
2013-03-06 14:15:00,40.4,28.8,29.98,NE,51,6.0,8.0,63,0.05,,,0.28,WeatherCatV1.10B1784,2013-03-06 19:15:00,
2013-03-06 14:20:00,40.5,28.9,29.98,ENE,74,3.0,10.0,63,0.05,,,0.28,WeatherCatV1.10B1784,2013-03-06 19:20:00,
2013-03-06 14:25:00,40.5,28.1,29.98,East,80,4.0,10.0,61,0.05,,,0.29,WeatherCatV1.10B1784,2013-03-06 19:25:00,
2013-03-06 14:30:00,40.6,28.2,29.98,ENE,75,4.0,7.0,61,0.05,,,0.29,WeatherCatV1.10B1784,2013-03-06 19:30:00,
2013-03-06 14:35:00,40.7,28.3,29.99,ENE,69,6.0,10.0,61,0.05,,,0.29,WeatherCatV1.10B1784,2013-03-06 19:35:00,
2013-03-06 14:40:00,40.6,28.6,29.99,NNE,16,6.0,9.0,62,0.04,,,0.29,WeatherCatV1.10B1784,2013-03-06 19:40:00,
2013-03-06 14:41:00,40.6,28.6,29.99,NNW,328,4.0,9.0,62,0.04,,,0.29,WeatherCatV1.10B1784,2013-03-06 19:41:00,
2013-03-06 14:46:00,40.5,28.5,29.99,ENE,58,5.0,10.0,62,0.04,,,0.30,WeatherCatV1.10B1784,2013-03-06 19:46:00,
2013-03-06 14:51:00,40.6,29.0,29.99,North,8,3.0,3.0,63,0.04,,,0.30,WeatherCatV1.10B1784,2013-03-06 19:51:00,
2013-03-06 14:56:00,40.7,29.1,30.00,NE,47,4.0,11.0,63,0.04,,,0.30,WeatherCatV1.10B1784,2013-03-06 19:56:00,
2013-03-06 15:01:00,40.6,29.0,30.00,NE,36,4.0,9.0,63,0.00,,,0.30,WeatherCatV1.10B1784,2013-03-06 20:01:00,
2013-03-06 15:06:00,40.6,29.4,30.00,NE,44,4.0,7.0,64,0.00,,,0.30,WeatherCatV1.10B1784,2013-03-06 20:06:00,
2013-03-06 15:11:00,40.6,29.4,30.00,ENE,60,7.0,9.0,64,0.00,,,0.31,WeatherCatV1.10B1784,2013-03-06 20:11:00,
2013-03-06 15:16:00,40.5,29.3,30.00,NE,46,5.0,7.0,64,0.00,,,0.31,WeatherCatV1.10B1784,2013-03-06 20:16:00,
2013-03-06 15:21:00,40.5,29.3,30.00,NNE,29,4.0,7.0,64,0.00,,,0.31,WeatherCatV1.10B1784,2013-03-06 20:21:00,
2013-03-06 15:26:00,40.4,29.2,30.01,NE,44,7.0,9.0,64,0.00,,,0.31,WeatherCatV1.10B1784,2013-03-06 20:26:00,
2013-03-06 15:31:00,40.4,29.2,30.01,North,5,8.0,8.0,64,0.00,,,0.31,WeatherCatV1.10B1784,2013-03-06 20:31:00,
2013-03-06 15:36:00,40.4,29.2,30.01,North,353,6.0,7.0,64,0.00,,,0.31,WeatherCatV1.10B1784,2013-03-06 20:36:00,
2013-03-06 15:41:00,40.5,28.9,30.01,NNE,30,2.0,4.0,63,0.00,,,0.31,WeatherCatV1.10B1784,2013-03-06 20:41:00,
2013-03-06 15:46:00,40.6,29.4,30.01,NNE,27,4.0,5.0,64,0.00,,,0.31,WeatherCatV1.10B1784,2013-03-06 20:46:00,
2013-03-06 15:51:00,40.6,29.0,30.01,NNW,331,3.0,7.0,63,0.00,,,0.32,WeatherCatV1.10B1784,2013-03-06 20:51:00,
2013-03-06 15:56:00,40.5,28.9,30.02,NE,47,4.0,6.0,63,0.00,,,0.32,WeatherCatV1.10B1784,2013-03-06 20:56:00,
2013-03-06 16:01:00,40.5,28.9,30.02,NNE,27,3.0,6.0,63,0.00,,,0.32,WeatherCatV1.10B1784,2013-03-06 21:01:00,
2013-03-06 16:06:00,40.5,28.9,30.02,NNW,332,3.0,6.0,63,0.00,,,0.32,WeatherCatV1.10B1784,2013-03-06 21:06:00,
2013-03-06 16:11:00,40.5,28.9,30.02,NE,51,3.0,5.0,63,0.00,,,0.32,WeatherCatV1.10B1784,2013-03-06 21:11:00,
2013-03-06 16:16:00,40.5,29.3,30.02,NNE,27,4.0,5.0,64,0.00,,,0.32,WeatherCatV1.10B1784,2013-03-06 21:16:00,
2013-03-06 16:21:00,40.5,28.9,30.02,NW,315,3.0,6.0,63,0.00,,,0.32,WeatherCatV1.10B1784,2013-03-06 21:21:00,
2013-03-06 16:26:00,40.4,28.4,30.02,NNW,333,3.0,9.0,62,0.00,,,0.32,WeatherCatV1.10B1784,2013-03-06 21:26:00,
2013-03-06 16:31:00,40.4,28.4,30.03,North,8,3.0,6.0,62,0.00,,,0.32,WeatherCatV1.10B1784,2013-03-06 21:31:00,
2013-03-06 16:36:00,40.4,28.8,30.03,NNW,340,0.0,4.0,63,0.00,,,0.32,WeatherCatV1.10B1784,2013-03-06 21:36:00,
2013-03-06 16:41:00,40.4,28.8,30.03,NNE,20,3.0,4.0,63,0.00,,,0.32,WeatherCatV1.10B1784,2013-03-06 21:41:00,
2013-03-06 16:46:00,40.4,28.8,30.03,North,355,2.0,4.0,63,0.00,,,0.32,WeatherCatV1.10B1784,2013-03-06 21:46:00,
2013-03-06 16:51:00,40.3,28.7,30.04,NNE,27,3.0,4.0,63,0.00,,,0.32,WeatherCatV1.10B1784,2013-03-06 21:51:00,
2013-03-06 16:56:00,40.3,28.7,30.04,NNW,341,2.0,3.0,63,0.00,,,0.32,WeatherCatV1.10B1784,2013-03-06 21:56:00,
2013-03-06 17:01:00,40.3,29.1,30.04,NNE,30,4.0,4.0,64,0.00,,,0.32,WeatherCatV1.10B1784,2013-03-06 22:01:00,
2013-03-06 17:06:00,40.2,28.6,30.04,North,356,1.0,3.0,63,0.00,,,0.32,WeatherCatV1.10B1784,2013-03-06 22:06:00,
2013-03-06 17:11:00,40.3,29.1,30.04,NW,305,0.0,0.0,64,0.00,,,0.32,WeatherCatV1.10B1784,2013-03-06 22:11:00,
2013-03-06 17:16:00,40.2,29.0,30.05,NW,314,1.0,1.0,64,0.00,,,0.32,WeatherCatV1.10B1784,2013-03-06 22:16:00,
2013-03-06 17:21:00,40.1,28.9,30.05,NW,313,1.0,2.0,64,0.00,,,0.32,WeatherCatV1.10B1784,2013-03-06 22:21:00,
2013-03-06 17:26:00,40.1,28.9,30.05,West,281,1.0,3.0,64,0.00,,,0.32,WeatherCatV1.10B1784,2013-03-06 22:26:00,
2013-03-06 17:31:00,40.0,28.4,30.05,WNW,290,3.0,3.0,63,0.00,,,0.32,WeatherCatV1.10B1784,2013-03-06 22:31:00,
2013-03-06 17:36:00,40.0,28.8,30.05,WNW,287,2.0,2.0,64,0.00,,,0.32,WeatherCatV1.10B1784,2013-03-06 22:36:00,
2013-03-06 17:41:00,39.9,29.1,30.05,WSW,257,2.0,2.0,65,0.00,,,0.32,WeatherCatV1.10B1784,2013-03-06 22:41:00,
2013-03-06 17:46:00,39.8,29.0,30.05,NW,314,3.0,3.0,65,0.00,,,0.32,WeatherCatV1.10B1784,2013-03-06 22:46:00,
2013-03-06 17:51:00,39.7,28.9,30.05,NW,306,1.0,3.0,65,0.00,,,0.32,WeatherCatV1.10B1784,2013-03-06 22:51:00,
2013-03-06 17:56:00,39.7,28.5,30.05,NNW,340,3.0,5.0,64,0.00,,,0.32,WeatherCatV1.10B1784,2013-03-06 22:56:00,
2013-03-06 18:01:00,39.6,28.8,30.05,NNW,348,2.0,2.0,65,0.00,,,0.32,WeatherCatV1.10B1784,2013-03-06 23:01:00,
2013-03-06 18:06:00,39.5,28.7,30.06,WNW,295,1.0,2.0,65,0.00,,,0.32,WeatherCatV1.10B1784,2013-03-06 23:06:00,
2013-03-06 18:11:00,39.4,28.6,30.06,NNW,340,0.0,1.0,65,0.00,,,0.32,WeatherCatV1.10B1784,2013-03-06 23:11:00,
2013-03-06 18:16:00,39.3,28.9,30.06,NNW,340,0.0,1.0,66,0.00,,,0.32,WeatherCatV1.10B1784,2013-03-06 23:16:00,
2013-03-06 18:21:00,39.2,28.4,30.06,North,1,0.0,1.0,65,0.00,,,0.32,WeatherCatV1.10B1784,2013-03-06 23:21:00,
2013-03-06 18:26:00,39.2,28.8,30.06,NNW,335,1.0,1.0,66,0.00,,,0.32,WeatherCatV1.10B1784,2013-03-06 23:26:00,
2013-03-06 18:31:00,38.9,29.6,30.06,WNW,293,0.0,0.0,69,0.00,,,0.32,WeatherCatV1.10B1784,2013-03-06 23:31:00,
2013-03-06 18:36:00,38.5,30.3,30.06,WNW,293,0.0,1.0,72,0.00,,,0.32,WeatherCatV1.10B1784,2013-03-06 23:36:00,
2013-03-06 18:41:00,38.0,30.5,30.06,West,270,0.0,1.0,74,0.00,,,0.32,WeatherCatV1.10B1784,2013-03-06 23:41:00,
2013-03-06 18:46:00,38.0,29.8,30.06,WNW,293,0.0,0.0,72,0.00,,,0.32,WeatherCatV1.10B1784,2013-03-06 23:46:00,
2013-03-06 18:51:00,38.0,30.5,30.06,WNW,293,1.0,1.0,74,0.00,,,0.32,WeatherCatV1.10B1784,2013-03-06 23:51:00,
2013-03-06 18:56:00,37.5,30.3,30.07,WSW,252,1.0,1.0,75,0.00,,,0.32,WeatherCatV1.10B1784,2013-03-06 23:56:00,
2013-03-06 19:01:00,37.2,30.3,30.07,West,262,1.0,1.0,76,0.00,,,0.32,WeatherCatV1.10B1784,2013-03-07 00:01:00,
2013-03-06 19:06:00,37.0,30.5,30.07,WSW,253,1.0,1.0,77,0.00,,,0.32,WeatherCatV1.10B1784,2013-03-07 00:06:00,
2013-03-06 19:11:00,36.8,30.9,30.08,WSW,248,1.0,1.0,79,0.00,,,0.32,WeatherCatV1.10B1784,2013-03-07 00:11:00,
2013-03-06 19:16:00,36.6,30.7,30.08,WSW,248,0.0,0.0,79,0.00,,,0.32,WeatherCatV1.10B1784,2013-03-07 00:16:00,
2013-03-06 19:21:00,36.6,30.7,30.08,WSW,248,0.0,1.0,79,0.00,,,0.32,WeatherCatV1.10B1784,2013-03-07 00:21:00,
2013-03-06 19:26:00,36.5,30.6,30.08,WSW,248,0.0,0.0,79,0.00,,,0.32,WeatherCatV1.10B1784,2013-03-07 00:26:00,
2013-03-06 19:31:00,36.4,30.8,30.08,WSW,248,0.0,0.0,80,0.00,,,0.32,WeatherCatV1.10B1784,2013-03-07 00:31:00,
2013-03-06 19:36:00,36.2,31.2,30.08,WSW,248,1.0,1.0,82,0.00,,,0.32,WeatherCatV1.10B1784,2013-03-07 00:36:00,
2013-03-06 19:41:00,36.0,31.0,30.08,WSW,248,1.0,1.0,82,0.00,,,0.32,WeatherCatV1.10B1784,2013-03-07 00:41:00,
2013-03-06 19:46:00,36.0,30.4,30.09,West,274,1.0,2.0,80,0.00,,,0.32,WeatherCatV1.10B1784,2013-03-07 00:46:00,
2013-03-06 19:51:00,36.2,30.9,30.09,WSW,255,1.0,1.0,81,0.00,,,0.32,WeatherCatV1.10B1784,2013-03-07 00:51:00,
2013-03-06 19:56:00,36.2,30.3,30.09,WSW,255,1.0,2.0,79,0.00,,,0.32,WeatherCatV1.10B1784,2013-03-07 00:56:00,
2013-03-06 20:01:00,36.5,30.0,30.09,West,268,1.0,3.0,77,0.00,,,0.32,WeatherCatV1.10B1784,2013-03-07 01:01:00,
2013-03-06 20:06:00,36.9,29.7,30.09,West,278,0.0,1.0,75,0.00,,,0.32,WeatherCatV1.10B1784,2013-03-07 01:06:00,
2013-03-06 20:11:00,37.1,29.3,30.10,NW,325,0.0,3.0,73,0.00,,,0.32,WeatherCatV1.10B1784,2013-03-07 01:11:00,
2013-03-06 20:16:00,37.2,29.4,30.10,WNW,297,0.0,1.0,73,0.00,,,0.32,WeatherCatV1.10B1784,2013-03-07 01:16:00,
2013-03-06 20:21:00,37.3,29.1,30.10,West,278,3.0,3.0,72,0.00,,,0.32,WeatherCatV1.10B1784,2013-03-07 01:21:00,
2013-03-06 20:26:00,37.5,29.0,30.10,NW,317,1.0,1.0,71,0.00,,,0.32,WeatherCatV1.10B1784,2013-03-07 01:26:00,
2013-03-06 20:31:00,37.5,29.3,30.10,West,274,0.0,1.0,72,0.00,,,0.32,WeatherCatV1.10B1784,2013-03-07 01:31:00,
2013-03-06 20:36:00,37.5,29.0,30.10,West,277,0.0,1.0,71,0.00,,,0.32,WeatherCatV1.10B1784,2013-03-07 01:36:00,
2013-03-06 20:41:00,37.4,29.2,30.10,West,279,1.0,1.0,72,0.00,,,0.32,WeatherCatV1.10B1784,2013-03-07 01:41:00,
2013-03-06 20:46:00,37.4,28.9,30.10,WNW,302,1.0,4.0,71,0.00,,,0.32,WeatherCatV1.10B1784,2013-03-07 01:46:00,
2013-03-06 20:51:00,37.3,29.1,30.10,West,273,1.0,2.0,72,0.00,,,0.32,WeatherCatV1.10B1784,2013-03-07 01:51:00,
2013-03-06 20:56:00,37.1,28.9,30.10,WSW,257,1.0,3.0,72,0.00,,,0.32,WeatherCatV1.10B1784,2013-03-07 01:56:00,
2013-03-06 21:01:00,37.0,28.8,30.10,West,274,1.0,1.0,72,0.00,,,0.32,WeatherCatV1.10B1784,2013-03-07 02:01:00,
2013-03-06 21:06:00,37.1,28.6,30.10,West,276,1.0,4.0,71,0.00,,,0.32,WeatherCatV1.10B1784,2013-03-07 02:06:00,
2013-03-06 21:11:00,37.2,29.0,30.10,West,259,1.0,2.0,72,0.00,,,0.32,WeatherCatV1.10B1784,2013-03-07 02:11:00,
2013-03-06 21:16:00,37.2,28.7,30.10,WNW,295,2.0,4.0,71,0.00,,,0.32,WeatherCatV1.10B1784,2013-03-07 02:16:00,
2013-03-06 21:21:00,37.2,28.3,30.11,NW,325,0.0,1.0,70,0.00,,,0.32,WeatherCatV1.10B1784,2013-03-07 02:21:00,
2013-03-06 21:26:00,37.1,28.2,30.11,West,281,0.0,1.0,70,0.00,,,0.32,WeatherCatV1.10B1784,2013-03-07 02:26:00,
2013-03-06 21:31:00,37.2,28.0,30.11,WNW,288,1.0,3.0,69,0.00,,,0.32,WeatherCatV1.10B1784,2013-03-07 02:31:00,
2013-03-06 21:36:00,37.3,28.4,30.11,WNW,293,1.0,2.0,70,0.00,,,0.32,WeatherCatV1.10B1784,2013-03-07 02:36:00,
2013-03-06 21:41:00,37.2,28.0,30.11,WNW,302,2.0,5.0,69,0.00,,,0.32,WeatherCatV1.10B1784,2013-03-07 02:41:00,
2013-03-06 21:46:00,37.1,28.2,30.11,WNW,284,2.0,3.0,70,0.00,,,0.32,WeatherCatV1.10B1784,2013-03-07 02:46:00,
2013-03-06 21:51:00,37.1,28.2,30.11,WNW,293,2.0,4.0,70,0.00,,,0.32,WeatherCatV1.10B1784,2013-03-07 02:51:00,
2013-03-06 21:56:00,37.1,28.6,30.11,West,279,1.0,1.0,71,0.00,,,0.32,WeatherCatV1.10B1784,2013-03-07 02:56:00,
2013-03-06 22:01:00,37.0,28.5,30.11,WNW,282,0.0,1.0,71,0.00,,,0.32,WeatherCatV1.10B1784,2013-03-07 03:01:00,
2013-03-06 22:06:00,36.8,28.3,30.11,NNW,333,1.0,1.0,71,0.00,,,0.32,WeatherCatV1.10B1784,2013-03-07 03:06:00,
2013-03-06 22:11:00,36.9,28.0,30.11,WNW,282,0.0,0.0,70,0.00,,,0.32,WeatherCatV1.10B1784,2013-03-07 03:11:00,
2013-03-06 22:16:00,36.9,28.0,30.11,West,281,1.0,1.0,70,0.00,,,0.32,WeatherCatV1.10B1784,2013-03-07 03:16:00,
2013-03-06 22:21:00,36.9,27.7,30.11,WNW,283,1.0,2.0,69,0.00,,,0.32,WeatherCatV1.10B1784,2013-03-07 03:21:00,
2013-03-06 22:26:00,36.9,28.0,30.11,WNW,293,0.0,1.0,70,0.00,,,0.32,WeatherCatV1.10B1784,2013-03-07 03:26:00,
2013-03-06 22:31:00,36.9,27.7,30.11,NW,312,0.0,1.0,69,0.00,,,0.32,WeatherCatV1.10B1784,2013-03-07 03:31:00,
2013-03-06 22:36:00,36.8,27.6,30.11,North,352,1.0,2.0,69,0.00,,,0.32,WeatherCatV1.10B1784,2013-03-07 03:36:00,
2013-03-06 22:41:00,36.8,27.6,30.11,NW,317,0.0,1.0,69,0.00,,,0.32,WeatherCatV1.10B1784,2013-03-07 03:41:00,
2013-03-06 22:46:00,36.7,27.9,30.11,NNE,32,1.0,2.0,70,0.00,,,0.32,WeatherCatV1.10B1784,2013-03-07 03:46:00,
2013-03-06 22:51:00,36.6,27.8,30.11,North,9,1.0,1.0,70,0.00,,,0.32,WeatherCatV1.10B1784,2013-03-07 03:51:00,
2013-03-06 22:56:00,36.6,27.8,30.11,NNE,25,0.0,3.0,70,0.00,,,0.32,WeatherCatV1.10B1784,2013-03-07 03:56:00,
2013-03-06 23:01:00,36.6,27.8,30.11,West,280,0.0,1.0,70,0.00,,,0.32,WeatherCatV1.10B1784,2013-03-07 04:01:00,
2013-03-06 23:06:00,36.6,27.8,30.11,WNW,293,1.0,2.0,70,0.00,,,0.32,WeatherCatV1.10B1784,2013-03-07 04:06:00,
2013-03-06 23:11:00,36.5,27.7,30.11,West,270,0.0,1.0,70,0.00,,,0.32,WeatherCatV1.10B1784,2013-03-07 04:11:00,
2013-03-06 23:16:00,36.5,28.0,30.10,West,270,0.0,1.0,71,0.00,,,0.32,WeatherCatV1.10B1784,2013-03-07 04:16:00,
2013-03-06 23:21:00,36.4,27.9,30.10,NW,304,0.0,0.0,71,0.00,,,0.32,WeatherCatV1.10B1784,2013-03-07 04:21:00,
2013-03-06 23:26:00,36.2,28.1,30.10,NW,304,0.0,0.0,72,0.00,,,0.32,WeatherCatV1.10B1784,2013-03-07 04:26:00,
2013-03-06 23:31:00,36.2,28.1,30.11,WNW,297,0.0,1.0,72,0.00,,,0.32,WeatherCatV1.10B1784,2013-03-07 04:31:00,
2013-03-06 23:36:00,35.9,28.8,30.11,WNW,297,0.0,1.0,75,0.00,,,0.32,WeatherCatV1.10B1784,2013-03-07 04:36:00,
2013-03-06 23:41:00,35.8,28.3,30.11,WNW,297,0.0,1.0,74,0.00,,,0.32,WeatherCatV1.10B1784,2013-03-07 04:41:00,
2013-03-06 23:46:00,35.6,28.8,30.11,WSW,248,0.0,1.0,76,0.00,,,0.32,WeatherCatV1.10B1784,2013-03-07 04:46:00,
2013-03-06 23:51:00,35.5,29.0,30.11,WSW,253,1.0,1.0,77,0.00,,,0.32,WeatherCatV1.10B1784,2013-03-07 04:51:00,
2013-03-06 23:56:00,35.5,28.7,30.11,West,259,3.0,3.0,76,0.00,,,0.32,WeatherCatV1.10B1784,2013-03-07 04:56:00,